Time;durP1;ratioP1;P1;durP2;ratioP2;P2;SDS_P1;SDS_P2;PMS_P1;PMS_P2;Temp;Humidity;BMP_temperature;BMP_pressure;BME280_temperature;BME280_humidity;BME280_pressure;Samples;Min_cycle;Max_cycle;Signal;HPM_P1;HPM_P2
2022/03/26 00:01:18;;;;;;;49.00;36.63;;;;;;;;;;5057765;27;88846;-84
2022/03/26 00:04:06;;;;;;;39.97;26.50;;;;;;;;;;5074666;27;88624;-84
2022/03/26 00:06:52;;;;;;;41.20;25.50;;;;;;;;;;5061515;27;89271;-84
2022/03/26 00:09:39;;;;;;;52.47;47.10;;;;;;;;;;5068290;27;88683;-84
2022/03/26 00:12:26;;;;;;;261.93;245.93;;;;;;;;;;5075034;27;89058;-83
2022/03/26 00:15:12;;;;;;;158.63;148.27;;;;;;;;;;5074816;27;91364;-83
2022/03/26 00:17:59;;;;;;;32.93;24.37;;;;;;;;;;5059505;27;91221;-83
2022/03/26 00:20:46;;;;;;;39.10;27.70;;;;;;;;;;5068881;27;90241;-84
2022/03/26 00:23:33;;;;;;;172.37;161.33;;;;;;;;;;5070865;27;88799;-84
2022/03/26 00:26:20;;;;;;;85.30;78.50;;;;;;;;;;5078942;27;91656;-84
2022/03/26 00:29:08;;;;;;;30.53;24.37;;;;;;;;;;5074746;27;89538;-83
2022/03/26 00:31:54;;;;;;;69.17;63.63;;;;;;;;;;5060801;27;88918;-84
2022/03/26 00:34:41;;;;;;;58.27;52.53;;;;;;;;;;5075745;27;89005;-84
2022/03/26 00:37:28;;;;;;;34.87;24.70;;;;;;;;;;5076294;27;88556;-84
2022/03/26 00:40:14;;;;;;;94.20;86.63;;;;;;;;;;5084032;27;88811;-84
2022/03/26 00:43:01;;;;;;;90.30;83.57;;;;;;;;;;5065024;27;89328;-84
2022/03/26 00:45:47;;;;;;;31.67;22.50;;;;;;;;;;5039792;27;88802;-83
2022/03/26 00:48:34;;;;;;;36.67;23.37;;;;;;;;;;5056241;27;88629;-82
2022/03/26 00:51:21;;;;;;;51.60;46.93;;;;;;;;;;5054747;27;89527;-83
2022/03/26 00:54:12;;;;;;;30.47;22.33;;;;;;;;;;5053701;27;88683;-82
2022/03/26 00:56:59;;;;;;;30.07;20.30;;;;;;;;;;5061735;27;88968;-83
2022/03/26 00:59:45;;;;;;;48.40;40.00;;;;;;;;;;5056161;27;88916;-83
2022/03/26 01:02:32;;;;;;;64.13;58.73;;;;;;;;;;5058031;27;89621;-83
2022/03/26 01:05:19;;;;;;;31.77;21.57;;;;;;;;;;5058602;27;88546;-82
2022/03/26 01:08:06;;;;;;;27.47;19.87;;;;;;;;;;5045641;27;89004;-83
2022/03/26 01:10:53;;;;;;;29.37;19.73;;;;;;;;;;5057922;27;89332;-83
2022/03/26 01:13:39;;;;;;;28.90;20.80;;;;;;;;;;5039571;27;88926;-83
2022/03/26 01:16:27;;;;;;;30.60;24.30;;;;;;;;;;5051467;27;89309;-83
2022/03/26 01:19:14;;;;;;;30.93;20.53;;;;;;;;;;5052973;27;88542;-83
2022/03/26 01:22:01;;;;;;;27.20;18.60;;;;;;;;;;5062437;27;88954;-84
2022/03/26 01:24:48;;;;;;;30.53;19.93;;;;;;;;;;5064308;27;89690;-83
2022/03/26 01:27:37;;;;;;;27.80;18.90;;;;;;;;;;5058550;27;88420;-85
2022/03/26 01:30:24;;;;;;;26.83;18.90;;;;;;;;;;5058077;27;88516;-83
2022/03/26 01:33:10;;;;;;;37.20;33.17;;;;;;;;;;5056150;27;88923;-83
2022/03/26 01:35:57;;;;;;;27.43;18.10;;;;;;;;;;5056026;27;89012;-83
2022/03/26 01:38:44;;;;;;;28.13;18.77;;;;;;;;;;5054235;27;88653;-84
2022/03/26 01:41:30;;;;;;;26.90;19.53;;;;;;;;;;5062470;27;88876;-84
2022/03/26 01:44:17;;;;;;;26.50;16.43;;;;;;;;;;5082111;27;89425;-84
2022/03/26 01:47:04;;;;;;;27.10;18.10;;;;;;;;;;5059012;27;89041;-84
2022/03/26 01:49:51;;;;;;;27.33;18.23;;;;;;;;;;5087510;27;89238;-84
2022/03/26 01:52:38;;;;;;;26.80;19.93;;;;;;;;;;5069442;27;89047;-84
2022/03/26 01:55:25;;;;;;;25.47;17.53;;;;;;;;;;5074861;27;89230;-83
2022/03/26 01:58:13;;;;;;;23.93;17.30;;;;;;;;;;5073640;27;89133;-84
2022/03/26 02:01:00;;;;;;;26.70;17.70;;;;;;;;;;5059547;27;89493;-84
2022/03/26 02:03:46;;;;;;;26.90;18.37;;;;;;;;;;5059864;27;88955;-83
2022/03/26 02:06:34;;;;;;;33.03;28.37;;;;;;;;;;5074927;27;89472;-84
2022/03/26 02:09:21;;;;;;;27.97;18.30;;;;;;;;;;5070868;27;88867;-84
2022/03/26 02:12:22;;;;;;;23.07;16.73;;;;;;;;;;5078201;27;88470;-84
2022/03/26 02:15:11;;;;;;;44.87;41.10;;;;;;;;;;5083111;27;88550;-84
2022/03/26 02:17:57;;;;;;;42.67;38.90;;;;;;;;;;5059409;27;88545;-84
2022/03/26 02:20:45;;;;;;;43.07;36.17;;;;;;;;;;5059139;27;90152;-85
2022/03/26 02:23:32;;;;;;;29.10;16.67;;;;;;;;;;5057875;27;88696;-84
2022/03/26 02:26:20;;;;;;;22.90;16.37;;;;;;;;;;5072783;27;88956;-84
2022/03/26 02:29:08;;;;;;;24.70;16.47;;;;;;;;;;5074405;27;88739;-85
2022/03/26 02:31:55;;;;;;;26.20;16.67;;;;;;;;;;5059029;27;88945;-84
2022/03/26 02:34:42;;;;;;;24.20;17.33;;;;;;;;;;5058764;27;89169;-84
2022/03/26 02:37:29;;;;;;;27.80;17.73;;;;;;;;;;5058360;27;88643;-85
2022/03/26 02:40:18;;;;;;;28.47;22.10;;;;;;;;;;5067002;27;89261;-84
2022/03/26 12:06:36;;;;;;;537.10;505.80;;;;;;;;;;6092659;22;93224;-79
2022/03/26 15:18:50;;;;;;;575.30;543.90;;;;;;;;;;5328661;22;92437;-84
2022/03/26 15:58:13;;;;;;;503.67;478.43;;;;;;;;;;4796780;26;91390;-84
